createdAt,value
2018-09-30T00:02:33.616Z,4.57
2018-09-30T00:05:36.734Z,4.60
2018-09-30T00:08:39.828Z,4.00
2018-09-30T00:11:42.992Z,4.50
2018-09-30T00:14:46.112Z,3.10
2018-09-30T00:17:50.206Z,2.80
2018-09-30T00:20:53.417Z,4.40
2018-09-30T00:24:02.006Z,3.10
2018-09-30T00:27:10.588Z,3.60
2018-09-30T00:30:13.691Z,3.47
2018-09-30T00:33:16.824Z,3.30
2018-09-30T00:36:20.043Z,4.10
2018-09-30T00:39:23.216Z,3.13
2018-09-30T00:42:26.334Z,3.00
2018-09-30T00:45:29.538Z,5.00
2018-09-30T00:48:32.700Z,3.83
2018-09-30T00:51:35.845Z,3.00
2018-09-30T00:54:39.015Z,3.40
2018-09-30T00:57:42.124Z,3.13
2018-09-30T01:00:45.321Z,4.40
2018-09-30T01:03:48.493Z,3.97
2018-09-30T01:06:51.664Z,2.83
2018-09-30T01:09:54.785Z,2.80
2018-09-30T01:12:57.896Z,3.47
2018-09-30T01:16:01.120Z,3.27
2018-09-30T01:19:04.324Z,3.67
2018-09-30T01:22:07.458Z,3.50
2018-09-30T01:25:10.582Z,2.80
2018-09-30T01:28:13.684Z,2.77
2018-09-30T01:31:16.904Z,3.03
2018-09-30T01:34:20.064Z,3.80
2018-09-30T01:37:23.191Z,2.60
2018-09-30T01:40:26.284Z,3.37
2018-09-30T01:43:29.404Z,3.93
2018-09-30T01:46:32.555Z,2.73
2018-09-30T01:49:35.660Z,4.13
2018-09-30T01:52:51.541Z,3.53
2018-09-30T01:55:54.698Z,2.43
2018-09-30T01:58:57.876Z,2.87
2018-09-30T02:02:00.991Z,3.60
2018-09-30T02:05:04.101Z,2.73
2018-09-30T02:08:07.204Z,3.03
2018-09-30T02:11:10.296Z,2.93
2018-09-30T02:14:13.392Z,2.63
2018-09-30T02:17:16.532Z,2.23
2018-09-30T02:20:19.732Z,2.27
2018-09-30T02:23:22.848Z,1.97
2018-09-30T02:26:25.935Z,3.17
2018-09-30T02:29:29.026Z,3.43
2018-09-30T02:32:32.119Z,3.57
2018-09-30T02:35:35.291Z,2.62
2018-09-30T02:38:38.408Z,2.80
2018-09-30T02:41:41.504Z,3.07
2018-09-30T02:44:44.594Z,3.00
2018-09-30T02:47:47.687Z,3.23
2018-09-30T02:50:50.862Z,3.33
2018-09-30T02:53:53.979Z,2.73
2018-09-30T02:56:57.196Z,2.23
2018-09-30T03:00:00.306Z,2.03
2018-09-30T03:03:03.706Z,2.80
2018-09-30T03:06:10.980Z,3.23
2018-09-30T03:09:15.788Z,2.80
2018-09-30T03:12:18.936Z,3.17
2018-09-30T03:15:22.073Z,4.17
2018-09-30T03:18:25.738Z,2.70
2018-09-30T03:21:28.835Z,2.10
2018-09-30T03:24:31.960Z,2.67
2018-09-30T03:27:35.079Z,3.17
2018-09-30T03:30:38.194Z,3.07
2018-09-30T03:33:41.350Z,1.77
2018-09-30T03:36:44.484Z,2.83
2018-09-30T03:39:47.593Z,3.03
2018-09-30T03:42:50.853Z,2.03
2018-09-30T03:45:53.958Z,2.83
2018-09-30T03:48:57.119Z,2.60
2018-09-30T03:52:00.236Z,1.80
2018-09-30T03:55:03.401Z,2.23
2018-09-30T03:58:06.498Z,2.40
2018-09-30T04:01:09.651Z,2.60
2018-09-30T04:04:12.838Z,2.63
2018-09-30T04:07:15.988Z,2.67
2018-09-30T04:10:19.096Z,2.00
2018-09-30T04:13:22.192Z,1.43
2018-09-30T04:16:25.339Z,2.47
2018-09-30T04:19:28.768Z,2.27
2018-09-30T04:22:31.876Z,1.93
2018-09-30T04:25:35.009Z,2.97
2018-09-30T04:28:38.268Z,1.27
2018-09-30T04:31:41.370Z,2.43
2018-09-30T04:34:44.476Z,2.50
2018-09-30T04:37:47.757Z,2.20
2018-09-30T04:40:50.850Z,1.93
2018-09-30T04:43:53.953Z,1.97
2018-09-30T04:46:57.036Z,2.07
2018-09-30T04:50:00.291Z,1.53
2018-09-30T04:53:03.336Z,2.00
2018-09-30T04:56:06.434Z,2.80
2018-09-30T04:59:09.590Z,2.30
2018-09-30T05:02:12.708Z,2.07
2018-09-30T05:05:15.792Z,2.13
2018-09-30T05:08:18.891Z,2.00
2018-09-30T05:11:22.092Z,2.07
2018-09-30T05:14:25.231Z,2.10
2018-09-30T05:17:28.487Z,1.70
2018-09-30T05:20:31.656Z,2.23
2018-09-30T05:23:34.764Z,3.27
2018-09-30T05:26:37.871Z,1.67
2018-09-30T05:29:41.034Z,1.70
2018-09-30T05:32:44.268Z,2.27
2018-09-30T05:35:47.454Z,2.57
2018-09-30T05:38:50.620Z,2.47
2018-09-30T05:41:53.784Z,2.50
2018-09-30T05:44:57.506Z,2.23
2018-09-30T05:48:01.642Z,2.63
2018-09-30T05:51:04.807Z,2.13
2018-09-30T05:54:07.929Z,2.67
2018-09-30T05:57:11.023Z,1.77
2018-09-30T06:00:14.118Z,2.67
2018-09-30T06:03:17.220Z,2.33
2018-09-30T06:06:20.316Z,2.10
2018-09-30T06:09:23.518Z,2.57
2018-09-30T06:12:26.659Z,2.70
2018-09-30T06:15:29.749Z,2.17
2018-09-30T06:18:32.868Z,2.07
2018-09-30T06:21:36.088Z,2.13
2018-09-30T06:24:39.322Z,1.70
2018-09-30T06:27:42.585Z,2.93
2018-09-30T06:30:45.724Z,2.10
2018-09-30T06:33:48.858Z,1.73
2018-09-30T06:36:51.972Z,1.77
2018-09-30T06:39:55.064Z,1.77
2018-09-30T06:42:58.152Z,1.93
2018-09-30T06:46:01.453Z,2.07
2018-09-30T06:49:04.536Z,2.17
2018-09-30T06:52:07.776Z,1.77
2018-09-30T06:55:10.905Z,1.77
2018-09-30T06:58:14.031Z,2.53
2018-09-30T07:01:17.164Z,1.70
2018-09-30T07:04:20.233Z,1.90
2018-09-30T07:07:23.336Z,2.17
2018-09-30T07:10:26.423Z,2.00
2018-09-30T07:13:29.516Z,1.40
2018-09-30T07:16:32.921Z,3.10
2018-09-30T07:19:36.014Z,2.50
2018-09-30T07:22:41.246Z,1.83
2018-09-30T07:25:44.328Z,1.63
2018-09-30T07:28:47.435Z,2.50
2018-09-30T07:31:50.535Z,1.72
2018-09-30T07:34:53.794Z,2.63
2018-09-30T07:37:56.914Z,1.83
2018-09-30T07:41:00.227Z,2.33
2018-09-30T07:44:03.364Z,1.47
2018-09-30T07:47:06.573Z,2.15
2018-09-30T07:50:09.712Z,1.67
2018-09-30T07:53:12.857Z,1.57
2018-09-30T07:56:15.964Z,1.90
2018-09-30T07:59:20.080Z,2.27
2018-09-30T08:02:23.209Z,1.83
2018-09-30T08:05:26.447Z,2.13
2018-09-30T08:08:29.567Z,2.47
2018-09-30T08:11:32.812Z,2.07
2018-09-30T08:14:36.025Z,2.10
2018-09-30T08:17:39.124Z,1.80
2018-09-30T08:20:42.246Z,2.20
2018-09-30T08:23:45.419Z,1.67
2018-09-30T08:26:48.640Z,2.17
2018-09-30T08:29:51.724Z,2.77
2018-09-30T08:32:55.921Z,2.97
2018-09-30T08:36:04.476Z,1.83
2018-09-30T08:39:08.325Z,1.93
2018-09-30T08:42:11.442Z,1.70
2018-09-30T08:45:14.557Z,1.47
2018-09-30T08:48:17.733Z,1.73
2018-09-30T08:51:20.855Z,2.33
2018-09-30T08:54:23.960Z,1.23
2018-09-30T08:57:27.179Z,1.30
2018-09-30T09:00:30.347Z,2.47
2018-09-30T09:03:33.442Z,1.03
2018-09-30T09:06:36.673Z,1.67
2018-09-30T09:09:39.821Z,2.13
2018-09-30T09:12:42.928Z,2.23
2018-09-30T09:15:46.053Z,1.83
2018-09-30T09:18:49.167Z,1.50
2018-09-30T09:21:52.370Z,2.70
2018-09-30T09:24:55.489Z,1.40
2018-09-30T09:27:58.603Z,2.07
2018-09-30T09:31:01.769Z,2.20
2018-09-30T09:34:04.917Z,1.90
2018-09-30T09:37:08.037Z,2.30
2018-09-30T09:40:11.551Z,2.03
2018-09-30T09:43:14.755Z,2.37
2018-09-30T09:46:17.850Z,1.27
2018-09-30T09:49:20.944Z,2.53
2018-09-30T09:52:24.056Z,1.30
2018-09-30T09:55:27.212Z,2.53
2018-09-30T09:58:30.340Z,2.27
2018-09-30T10:01:34.944Z,2.37
2018-09-30T10:04:38.143Z,2.50
2018-09-30T10:07:41.296Z,1.63
2018-09-30T10:10:44.452Z,1.87
2018-09-30T10:13:47.569Z,1.93
2018-09-30T10:16:50.744Z,2.20
2018-09-30T10:19:53.869Z,2.40
2018-09-30T10:22:57.056Z,1.80
2018-09-30T10:26:00.407Z,1.97
2018-09-30T10:29:04.748Z,1.70
2018-09-30T10:32:08.193Z,2.73
2018-09-30T10:35:11.311Z,1.60
2018-09-30T10:38:15.898Z,2.40
2018-09-30T10:41:19.886Z,2.40
2018-09-30T10:44:23.132Z,2.27
2018-09-30T10:47:26.384Z,2.53
2018-09-30T10:50:29.676Z,2.52
2018-09-30T10:53:34.040Z,1.27
2018-09-30T10:56:37.158Z,2.00
2018-09-30T10:59:40.273Z,1.80
2018-09-30T11:02:43.426Z,1.63
2018-09-30T11:05:46.696Z,2.42
2018-09-30T11:08:49.870Z,1.90
2018-09-30T11:11:53.008Z,2.10
2018-09-30T11:14:58.395Z,1.73
2018-09-30T11:18:01.528Z,1.40
2018-09-30T11:21:04.772Z,1.83
2018-09-30T11:24:07.932Z,2.47
2018-09-30T11:27:11.376Z,2.40
2018-09-30T11:30:14.784Z,2.57
2018-09-30T11:33:18.005Z,2.00
2018-09-30T11:36:22.126Z,1.73
2018-09-30T11:39:25.263Z,1.70
2018-09-30T11:42:28.379Z,1.60
2018-09-30T11:45:31.580Z,2.05
2018-09-30T11:48:34.737Z,1.67
2018-09-30T11:51:37.900Z,1.40
2018-09-30T11:54:41.034Z,1.77
2018-09-30T11:57:44.241Z,1.70
2018-09-30T12:00:47.384Z,1.53
2018-09-30T12:03:50.525Z,1.40
2018-09-30T12:06:53.692Z,2.80
2018-09-30T12:09:56.819Z,2.00
2018-09-30T12:12:59.943Z,1.20
2018-09-30T12:16:03.100Z,1.83
2018-09-30T12:19:06.252Z,1.60
2018-09-30T12:22:09.414Z,2.63
2018-09-30T12:25:12.567Z,1.93
2018-09-30T12:28:15.701Z,1.60
2018-09-30T12:31:18.919Z,1.80
2018-09-30T12:34:22.062Z,2.03
2018-09-30T12:37:25.257Z,2.67
2018-09-30T12:40:28.431Z,1.77
2018-09-30T12:43:31.556Z,1.60
2018-09-30T12:46:34.688Z,1.57
2018-09-30T12:49:37.861Z,1.47
2018-09-30T12:52:40.964Z,2.03
2018-09-30T12:55:44.157Z,1.50
2018-09-30T12:58:47.292Z,1.37
2018-09-30T13:01:50.453Z,1.67
2018-09-30T13:04:53.594Z,1.53
2018-09-30T13:07:56.761Z,1.60
2018-09-30T13:10:59.938Z,1.10
2018-09-30T13:14:03.400Z,2.13
2018-09-30T13:17:06.600Z,2.73
2018-09-30T13:20:10.353Z,1.77
2018-09-30T13:23:19.012Z,2.20
2018-09-30T13:26:35.543Z,2.02
2018-09-30T13:29:38.637Z,2.73
2018-09-30T13:32:41.732Z,1.67
2018-09-30T13:35:45.013Z,1.37
2018-09-30T13:38:48.156Z,1.63
2018-09-30T13:41:51.309Z,2.40
2018-09-30T13:44:54.408Z,1.77
2018-09-30T13:47:57.594Z,1.47
2018-09-30T13:51:00.724Z,1.77
2018-09-30T13:54:03.945Z,1.97
2018-09-30T13:57:07.099Z,1.43
2018-09-30T14:00:10.258Z,1.60
2018-09-30T14:03:13.400Z,1.50
2018-09-30T14:06:16.539Z,3.30
2018-09-30T14:09:19.656Z,2.73
2018-09-30T14:12:22.771Z,1.77
2018-09-30T14:15:25.950Z,1.70
2018-09-30T14:18:29.060Z,1.07
2018-09-30T14:21:32.231Z,1.60
2018-09-30T14:24:35.395Z,1.37
2018-09-30T14:27:38.514Z,2.03
2018-09-30T14:30:41.624Z,2.22
2018-09-30T14:33:44.889Z,1.83
2018-09-30T14:36:48.037Z,1.43
2018-09-30T14:39:51.152Z,2.03
2018-09-30T14:42:54.392Z,1.50
2018-09-30T14:45:57.509Z,2.30
2018-09-30T14:49:00.707Z,2.60
2018-09-30T14:52:03.876Z,1.27
2018-09-30T14:55:06.996Z,1.80
2018-09-30T14:58:10.203Z,1.43
2018-09-30T15:01:13.466Z,1.67
2018-09-30T15:04:16.612Z,1.40
2018-09-30T15:07:19.965Z,2.13
2018-09-30T15:10:23.052Z,2.27
2018-09-30T15:13:26.312Z,1.77
2018-09-30T15:16:29.465Z,2.03
2018-09-30T15:19:32.730Z,1.77
2018-09-30T15:22:36.036Z,2.00
2018-09-30T15:25:39.164Z,4.43
2018-09-30T15:28:42.298Z,7.80
2018-09-30T15:31:45.512Z,2.87
2018-09-30T15:34:48.616Z,2.70
2018-09-30T15:37:51.825Z,5.33
2018-09-30T15:40:54.926Z,3.90
2018-09-30T15:43:58.078Z,2.40
2018-09-30T15:47:01.265Z,4.13
2018-09-30T15:50:04.493Z,4.00
2018-09-30T15:53:07.689Z,3.53
2018-09-30T15:56:10.936Z,2.50
2018-09-30T15:59:14.056Z,2.00
2018-09-30T16:02:17.887Z,5.03
2018-09-30T16:05:21.156Z,3.80
2018-09-30T16:08:24.288Z,3.07
2018-09-30T16:11:27.477Z,4.20
2018-09-30T16:14:30.745Z,4.83
2018-09-30T16:17:33.941Z,2.63
2018-09-30T16:20:37.263Z,3.57
2018-09-30T16:23:42.070Z,14.53
2018-09-30T16:26:45.313Z,17.37
2018-09-30T16:29:48.639Z,17.53
2018-09-30T16:32:52.120Z,15.00
2018-09-30T16:35:56.292Z,14.83
2018-09-30T16:38:59.485Z,20.33
2018-09-30T16:42:02.658Z,18.03
2018-09-30T16:45:05.904Z,26.80
2018-09-30T16:48:09.293Z,20.07
2018-09-30T16:51:12.432Z,20.03
2018-09-30T16:54:15.552Z,20.20
2018-09-30T17:00:27.868Z,17.80
2018-09-30T17:03:31.014Z,23.43
2018-09-30T17:06:34.315Z,16.47
2018-09-30T17:09:37.653Z,17.83
2018-09-30T17:12:40.828Z,23.57
2018-09-30T17:15:43.067Z,22.30
2018-09-30T17:18:46.954Z,24.47
2018-09-30T17:21:50.196Z,23.07
2018-09-30T17:24:53.311Z,17.93
2018-09-30T17:27:56.492Z,14.37
2018-09-30T17:30:59.729Z,21.13
2018-09-30T17:34:02.924Z,18.82
2018-09-30T17:37:06.021Z,35.40
2018-09-30T17:40:09.117Z,17.33
2018-09-30T17:43:12.334Z,13.27
2018-09-30T17:46:15.788Z,13.37
2018-09-30T17:49:18.892Z,13.53
2018-09-30T17:52:22.090Z,11.43
2018-09-30T17:55:26.065Z,15.00
2018-09-30T17:58:29.433Z,15.17
2018-09-30T18:01:32.655Z,20.63
2018-09-30T18:04:35.822Z,18.63
2018-09-30T18:07:38.966Z,17.93
2018-09-30T18:10:42.142Z,16.63
2018-09-30T18:13:46.769Z,18.13
2018-09-30T18:16:50.270Z,18.67
2018-09-30T18:19:53.360Z,23.17
2018-09-30T18:22:56.490Z,21.50
2018-09-30T18:25:59.691Z,13.50
2018-09-30T18:29:02.857Z,15.17
2018-09-30T18:32:07.065Z,13.60
2018-09-30T18:35:10.269Z,16.43
2018-09-30T18:38:13.421Z,12.03
2018-09-30T18:41:16.526Z,14.73
2018-09-30T18:44:19.651Z,12.73
2018-09-30T18:47:22.755Z,13.30
2018-09-30T18:50:26.014Z,8.97
2018-09-30T18:53:29.183Z,15.43
2018-09-30T18:56:32.401Z,16.03
2018-09-30T18:59:36.572Z,14.80
2018-09-30T19:02:39.760Z,16.50
2018-09-30T19:05:42.888Z,18.73
2018-09-30T19:08:46.134Z,19.10
2018-09-30T19:11:49.258Z,16.90
2018-09-30T19:14:52.927Z,15.90
2018-09-30T19:17:56.259Z,15.73
2018-09-30T19:20:59.473Z,14.07
2018-09-30T19:24:02.580Z,11.30
2018-09-30T19:27:05.838Z,12.10
2018-09-30T19:30:08.995Z,15.60
2018-09-30T19:33:12.125Z,11.00
2018-09-30T19:36:15.327Z,14.83
2018-09-30T19:39:18.517Z,16.93
2018-09-30T19:42:21.642Z,18.30
2018-09-30T19:45:24.890Z,10.53
2018-09-30T19:48:28.064Z,10.03
2018-09-30T19:51:31.052Z,14.60
2018-09-30T19:54:34.145Z,15.73
2018-09-30T19:57:37.240Z,14.23
2018-09-30T20:00:40.328Z,24.77
2018-09-30T20:03:43.473Z,19.83
2018-09-30T20:06:46.569Z,12.73
2018-09-30T20:09:49.708Z,21.20
2018-09-30T20:12:52.953Z,21.93
2018-09-30T20:15:56.088Z,16.87
2018-09-30T20:18:59.365Z,12.87
2018-09-30T20:22:02.580Z,13.67
2018-09-30T20:25:05.725Z,15.70
2018-09-30T20:28:09.240Z,15.67
2018-09-30T20:31:12.433Z,13.37
2018-09-30T20:34:15.691Z,14.37
2018-09-30T20:37:18.879Z,15.95
2018-09-30T20:40:22.057Z,15.60
2018-09-30T20:43:25.169Z,12.70
2018-09-30T20:46:29.615Z,15.80
2018-09-30T20:49:32.752Z,11.57
2018-09-30T20:52:35.847Z,13.47
2018-09-30T20:55:39.004Z,11.43
2018-09-30T20:58:42.200Z,22.27
2018-09-30T21:01:45.361Z,14.23
2018-09-30T21:04:48.431Z,12.23
2018-09-30T21:07:51.741Z,10.17
2018-09-30T21:10:54.820Z,11.40
2018-09-30T21:14:02.850Z,10.17
2018-09-30T21:17:06.428Z,11.67
2018-09-30T21:20:09.492Z,13.40
2018-09-30T21:23:12.665Z,13.73
2018-09-30T21:26:16.060Z,15.23
2018-09-30T21:29:19.241Z,13.57
2018-09-30T21:32:22.377Z,13.23
2018-09-30T21:35:25.938Z,17.20
2018-09-30T21:38:29.181Z,15.67
2018-09-30T21:41:32.262Z,12.50
2018-09-30T21:44:35.391Z,17.23
2018-09-30T21:47:38.475Z,15.10
2018-09-30T21:50:41.615Z,14.10
2018-09-30T21:53:44.697Z,16.80
2018-09-30T21:56:47.787Z,14.17
2018-09-30T21:59:50.884Z,16.30
2018-09-30T22:02:53.987Z,15.10
2018-09-30T22:05:57.176Z,13.80
2018-09-30T22:09:02.384Z,14.73
2018-09-30T22:12:05.581Z,11.77
2018-09-30T22:15:08.698Z,15.83
2018-09-30T22:18:12.140Z,14.63
2018-09-30T22:21:15.445Z,11.30
2018-09-30T22:24:18.731Z,15.53
2018-09-30T22:27:21.919Z,13.53
2018-09-30T22:30:26.065Z,12.40
2018-09-30T22:33:29.163Z,15.10
2018-09-30T22:36:32.485Z,12.97
2018-09-30T22:39:35.708Z,13.90
2018-09-30T22:42:38.914Z,11.60
2018-09-30T22:45:42.141Z,10.00
2018-09-30T22:48:45.448Z,13.07
2018-09-30T22:51:48.558Z,10.10
2018-09-30T22:54:51.717Z,10.20
2018-09-30T22:57:54.776Z,9.30
2018-09-30T23:00:57.848Z,10.30
2018-09-30T23:04:00.902Z,11.67
2018-09-30T23:07:04.006Z,9.33
2018-09-30T23:10:09.119Z,10.73
2018-09-30T23:13:12.305Z,13.30
2018-09-30T23:16:15.374Z,8.57
2018-09-30T23:19:18.448Z,11.17
2018-09-30T23:22:21.538Z,8.50
2018-09-30T23:25:24.620Z,10.40
2018-09-30T23:28:27.736Z,7.13
2018-09-30T23:31:30.826Z,11.17
2018-09-30T23:34:33.936Z,9.33
2018-09-30T23:37:37.065Z,7.77
2018-09-30T23:40:40.218Z,8.40
2018-09-30T23:43:43.348Z,13.63
2018-09-30T23:46:46.433Z,9.93
2018-09-30T23:49:49.648Z,10.03
2018-09-30T23:52:52.736Z,7.50
2018-09-30T23:55:55.868Z,6.93
2018-09-30T23:58:59.004Z,6.30
